sensor_id;sensor_type;location;lat;lon;timestamp;pressure;altitude;pressure_sealevel;temperature;humidity
48041;BME280;33815;48.386;11.738;2023-04-27T00:02:04;96575.47;;;3.25;100.00
48041;BME280;33815;48.386;11.738;2023-04-27T00:04:30;96578.06;;;3.25;100.00
48041;BME280;33815;48.386;11.738;2023-04-27T00:06:56;96573.81;;;3.24;100.00
48041;BME280;33815;48.386;11.738;2023-04-27T00:09:21;96583.91;;;3.28;100.00
48041;BME280;33815;48.386;11.738;2023-04-27T00:11:47;96595.44;;;3.35;100.00
48041;BME280;33815;48.386;11.738;2023-04-27T00:14:12;96589.78;;;3.42;100.00
48041;BME280;33815;48.386;11.738;2023-04-27T00:16:37;96593.97;;;3.43;100.00
48041;BME280;33815;48.386;11.738;2023-04-27T00:19:02;96598.00;;;3.48;100.00
48041;BME280;33815;48.386;11.738;2023-04-27T00:21:28;96593.25;;;3.54;100.00
48041;BME280;33815;48.386;11.738;2023-04-27T00:23:53;96583.97;;;3.52;100.00
48041;BME280;33815;48.386;11.738;2023-04-27T00:26:19;96586.22;;;3.69;100.00
48041;BME280;33815;48.386;11.738;2023-04-27T00:28:46;96583.63;;;3.69;100.00
48041;BME280;33815;48.386;11.738;2023-04-27T00:31:11;96577.75;;;3.67;100.00
48041;BME280;33815;48.386;11.738;2023-04-27T00:33:36;96589.38;;;3.73;100.00
48041;BME280;33815;48.386;11.738;2023-04-27T00:36:02;96585.19;;;3.72;100.00
48041;BME280;33815;48.386;11.738;2023-04-27T00:38:28;96580.94;;;3.71;100.00
48041;BME280;33815;48.386;11.738;2023-04-27T00:41:01;96591.94;;;3.73;100.00
48041;BME280;33815;48.386;11.738;2023-04-27T00:43:26;96591.94;;;3.73;100.00
48041;BME280;33815;48.386;11.738;2023-04-27T00:45:52;96595.16;;;3.76;100.00
48041;BME280;33815;48.386;11.738;2023-04-27T00:48:17;96581.66;;;3.73;100.00
48041;BME280;33815;48.386;11.738;2023-04-27T00:50:42;96587.31;;;3.78;100.00
48041;BME280;33815;48.386;11.738;2023-04-27T00:53:07;96582.97;;;3.78;100.00
48041;BME280;33815;48.386;11.738;2023-04-27T00:55:33;96594.13;;;3.79;100.00
48041;BME280;33815;48.386;11.738;2023-04-27T00:57:58;96584.72;;;3.78;100.00
48041;BME280;33815;48.386;11.738;2023-04-27T01:00:24;96583.06;;;3.77;100.00
48041;BME280;33815;48.386;11.738;2023-04-27T01:02:50;96580.72;;;3.74;100.00
48041;BME280;33815;48.386;11.738;2023-04-27T01:05:17;96581.13;;;3.81;100.00
48041;BME280;33815;48.386;11.738;2023-04-27T01:07:43;96576.00;;;3.68;100.00
48041;BME280;33815;48.386;11.738;2023-04-27T01:10:09;96584.22;;;3.73;100.00
48041;BME280;33815;48.386;11.738;2023-04-27T01:12:34;96584.22;;;3.73;100.00
48041;BME280;33815;48.386;11.738;2023-04-27T01:15:00;96587.84;;;3.70;100.00
48041;BME280;33815;48.386;11.738;2023-04-27T01:17:25;96582.09;;;3.67;100.00
48041;BME280;33815;48.386;11.738;2023-04-27T01:19:50;96567.25;;;3.70;100.00
48041;BME280;33815;48.386;11.738;2023-04-27T01:22:19;96578.44;;;3.82;100.00
48041;BME280;33815;48.386;11.738;2023-04-27T01:24:44;96584.72;;;3.78;100.00
48041;BME280;33815;48.386;11.738;2023-04-27T01:27:10;96574.88;;;3.72;100.00
48041;BME280;33815;48.386;11.738;2023-04-27T01:29:35;96586.44;;;3.66;100.00
48041;BME280;33815;48.386;11.738;2023-04-27T01:32:00;96582.31;;;3.64;100.00
48041;BME280;33815;48.386;11.738;2023-04-27T01:34:25;96581.69;;;3.60;100.00
48041;BME280;33815;48.386;11.738;2023-04-27T01:36:50;96572.44;;;3.45;100.00
48041;BME280;33815;48.386;11.738;2023-04-27T01:39:16;96582.34;;;3.51;100.00
48041;BME280;33815;48.386;11.738;2023-04-27T01:41:41;96584.69;;;3.54;100.00
48041;BME280;33815;48.386;11.738;2023-04-27T01:44:06;96578.69;;;3.53;100.00
48041;BME280;33815;48.386;11.738;2023-04-27T01:46:32;96577.19;;;3.51;100.00
48041;BME280;33815;48.386;11.738;2023-04-27T01:48:57;96578.69;;;3.53;100.00
48041;BME280;33815;48.386;11.738;2023-04-27T01:51:22;96573.28;;;3.45;100.00
48041;BME280;33815;48.386;11.738;2023-04-27T01:53:48;96566.59;;;3.42;100.00
48041;BME280;33815;48.386;11.738;2023-04-27T01:56:13;96587.28;;;3.54;100.00
48041;BME280;33815;48.386;11.738;2023-04-27T01:58:38;96577.25;;;3.49;100.00
48041;BME280;33815;48.386;11.738;2023-04-27T02:01:03;96589.84;;;3.54;100.00
48041;BME280;33815;48.386;11.738;2023-04-27T02:03:29;96586.31;;;3.55;100.00
48041;BME280;33815;48.386;11.738;2023-04-27T02:05:54;96590.06;;;3.51;100.00
48041;BME280;33815;48.386;11.738;2023-04-27T02:08:19;96595.00;;;3.54;100.00
48041;BME280;33815;48.386;11.738;2023-04-27T02:10:45;96592.53;;;3.52;100.00
48041;BME280;33815;48.386;11.738;2023-04-27T02:13:10;96588.41;;;3.50;100.00
48041;BME280;33815;48.386;11.738;2023-04-27T02:15:35;96600.06;;;3.55;100.00
48041;BME280;33815;48.386;11.738;2023-04-27T02:18:02;96572.09;;;3.49;100.00
48041;BME280;33815;48.386;11.738;2023-04-27T02:20:29;96584.03;;;3.63;100.00
48041;BME280;33815;48.386;11.738;2023-04-27T02:22:54;96595.19;;;3.64;100.00
48041;BME280;33815;48.386;11.738;2023-04-27T02:25:19;96587.16;;;3.55;100.00
48041;BME280;33815;48.386;11.738;2023-04-27T02:27:45;96596.22;;;3.61;100.00
48041;BME280;33815;48.386;11.738;2023-04-27T02:30:11;96595.59;;;3.57;100.00
48041;BME280;33815;48.386;11.738;2023-04-27T02:32:37;96595.50;;;3.59;100.00
48041;BME280;33815;48.386;11.738;2023-04-27T02:35:02;96587.16;;;3.55;100.00
48041;BME280;33815;48.386;11.738;2023-04-27T02:37:28;96594.34;;;3.63;100.00
48041;BME280;33815;48.386;11.738;2023-04-27T02:39:53;96579.09;;;3.60;100.00
48041;BME280;33815;48.386;11.738;2023-04-27T02:42:19;96601.66;;;3.69;100.00
48041;BME280;33815;48.386;11.738;2023-04-27T02:44:45;96598.81;;;3.61;100.00
48041;BME280;33815;48.386;11.738;2023-04-27T02:47:10;96596.97;;;3.50;100.00
48041;BME280;33815;48.386;11.738;2023-04-27T02:49:36;96594.63;;;3.34;100.00
48041;BME280;33815;48.386;11.738;2023-04-27T02:52:02;96599.25;;;3.29;100.00
48041;BME280;33815;48.386;11.738;2023-04-27T02:54:27;96595.13;;;3.14;100.00
48041;BME280;33815;48.386;11.738;2023-04-27T02:56:52;96598.53;;;3.01;100.00
48041;BME280;33815;48.386;11.738;2023-04-27T02:59:18;96585.56;;;2.90;100.00
48041;BME280;33815;48.386;11.738;2023-04-27T03:01:43;96592.25;;;2.80;100.00
48041;BME280;33815;48.386;11.738;2023-04-27T03:04:08;96604.50;;;2.76;100.00
48041;BME280;33815;48.386;11.738;2023-04-27T03:06:34;96616.63;;;2.61;100.00
48041;BME280;33815;48.386;11.738;2023-04-27T03:09:00;96614.94;;;2.47;100.00
48041;BME280;33815;48.386;11.738;2023-04-27T03:11:25;96595.56;;;2.29;100.00
48041;BME280;33815;48.386;11.738;2023-04-27T03:13:50;96604.41;;;2.25;100.00
48041;BME280;33815;48.386;11.738;2023-04-27T03:16:15;96606.72;;;2.15;100.00
48041;BME280;33815;48.386;11.738;2023-04-27T03:18:41;96603.81;;;2.07;100.00
48041;BME280;33815;48.386;11.738;2023-04-27T03:21:07;96613.44;;;2.03;100.00
48041;BME280;33815;48.386;11.738;2023-04-27T03:23:32;96616.22;;;2.00;100.00
48041;BME280;33815;48.386;11.738;2023-04-27T03:25:58;96603.53;;;1.84;100.00
48041;BME280;33815;48.386;11.738;2023-04-27T03:28:23;96621.31;;;1.87;100.00
48041;BME280;33815;48.386;11.738;2023-04-27T03:30:48;96618.47;;;1.77;100.00
48041;BME280;33815;48.386;11.738;2023-04-27T03:33:13;96611.06;;;1.73;100.00
48041;BME280;33815;48.386;11.738;2023-04-27T03:35:39;96630.69;;;1.74;100.00
48041;BME280;33815;48.386;11.738;2023-04-27T03:38:04;96624.91;;;1.70;100.00
48041;BME280;33815;48.386;11.738;2023-04-27T03:40:29;96614.28;;;1.62;100.00
48041;BME280;33815;48.386;11.738;2023-04-27T03:42:55;96630.97;;;1.69;100.00
48041;BME280;33815;48.386;11.738;2023-04-27T03:45:20;96616.75;;;1.63;100.00
48041;BME280;33815;48.386;11.738;2023-04-27T03:47:46;96627.50;;;1.56;100.00
48041;BME280;33815;48.386;11.738;2023-04-27T03:50:11;96633.91;;;1.48;100.00
48041;BME280;33815;48.386;11.738;2023-04-27T03:52:37;96627.31;;;1.44;100.00
48041;BME280;33815;48.386;11.738;2023-04-27T03:55:02;96638.78;;;1.39;100.00
48041;BME280;33815;48.386;11.738;2023-04-27T03:57:27;96637.59;;;1.30;100.00
48041;BME280;33815;48.386;11.738;2023-04-27T03:59:53;96626.22;;;1.19;100.00
48041;BME280;33815;48.386;11.738;2023-04-27T04:02:18;96629.63;;;1.20;100.00
48041;BME280;33815;48.386;11.738;2023-04-27T04:04:44;96633.19;;;1.17;100.00
48041;BME280;33815;48.386;11.738;2023-04-27T04:07:09;96649.34;;;1.19;100.00
48041;BME280;33815;48.386;11.738;2023-04-27T04:09:34;96624.56;;;1.04;100.00
48041;BME280;33815;48.386;11.738;2023-04-27T04:12:00;96653.91;;;1.14;100.00
48041;BME280;33815;48.386;11.738;2023-04-27T04:14:26;96657.19;;;1.16;100.00
48041;BME280;33815;48.386;11.738;2023-04-27T04:16:51;96654.72;;;1.15;100.00
48041;BME280;33815;48.386;11.738;2023-04-27T04:19:17;96652.06;;;1.16;100.00
48041;BME280;33815;48.386;11.738;2023-04-27T04:21:42;96660.69;;;1.15;100.00
48041;BME280;33815;48.386;11.738;2023-04-27T04:24:07;96658.22;;;1.14;100.00
48041;BME280;33815;48.386;11.738;2023-04-27T04:26:34;96658.13;;;1.15;100.00
48041;BME280;33815;48.386;11.738;2023-04-27T04:28:59;96671.25;;;1.25;100.00
48041;BME280;33815;48.386;11.738;2023-04-27T04:31:25;96667.13;;;1.37;100.00
48041;BME280;33815;48.386;11.738;2023-04-27T04:33:50;96672.25;;;1.51;100.00
48041;BME280;33815;48.386;11.738;2023-04-27T04:36:15;96661.63;;;1.58;100.00
48041;BME280;33815;48.386;11.738;2023-04-27T04:38:41;96683.44;;;1.94;100.00
48041;BME280;33815;48.386;11.738;2023-04-27T04:41:06;96673.69;;;2.13;100.00
48041;BME280;33815;48.386;11.738;2023-04-27T04:43:32;96671.34;;;2.23;100.00
48041;BME280;33815;48.386;11.738;2023-04-27T04:45:57;96663.34;;;2.28;100.00
48041;BME280;33815;48.386;11.738;2023-04-27T04:48:22;96678.97;;;2.52;100.00
48041;BME280;33815;48.386;11.738;2023-04-27T04:50:48;96681.09;;;2.72;100.00
48041;BME280;33815;48.386;11.738;2023-04-27T04:53:13;96680.78;;;2.77;100.00
48041;BME280;33815;48.386;11.738;2023-04-27T04:55:38;96671.13;;;2.81;100.00
48041;BME280;33815;48.386;11.738;2023-04-27T04:58:05;96675.38;;;2.95;100.00
48041;BME280;33815;48.386;11.738;2023-04-27T05:00:30;96678.78;;;3.08;100.00
48041;BME280;33815;48.386;11.738;2023-04-27T05:02:55;96666.94;;;3.18;100.00
48041;BME280;33815;48.386;11.738;2023-04-27T05:05:20;96677.97;;;3.20;100.00
48041;BME280;33815;48.386;11.738;2023-04-27T05:07:46;96678.50;;;3.25;100.00
48041;BME280;33815;48.386;11.738;2023-04-27T05:10:11;96688.81;;;3.38;100.00
48041;BME280;33815;48.386;11.738;2023-04-27T05:12:36;96674.97;;;3.39;100.00
48041;BME280;33815;48.386;11.738;2023-04-27T05:15:02;96677.06;;;3.47;100.00
48041;BME280;33815;48.386;11.738;2023-04-27T05:17:28;96689.13;;;3.59;100.00
48041;BME280;33815;48.386;11.738;2023-04-27T05:19:53;96689.00;;;3.61;100.00
48041;BME280;33815;48.386;11.738;2023-04-27T05:22:18;96694.16;;;3.74;100.00
48041;BME280;33815;48.386;11.738;2023-04-27T05:24:43;96679.19;;;3.79;100.00
48041;BME280;33815;48.386;11.738;2023-04-27T05:27:09;96691.22;;;4.04;100.00
48041;BME280;33815;48.386;11.738;2023-04-27T05:29:36;96685.56;;;4.23;100.00
48041;BME280;33815;48.386;11.738;2023-04-27T05:32:01;96682.03;;;4.37;100.00
48041;BME280;33815;48.386;11.738;2023-04-27T05:34:27;96687.63;;;4.55;100.00
48041;BME280;33815;48.386;11.738;2023-04-27T05:36:52;96685.59;;;4.72;100.00
48041;BME280;33815;48.386;11.738;2023-04-27T05:39:17;96696.03;;;4.70;100.00
48041;BME280;33815;48.386;11.738;2023-04-27T05:41:42;96694.53;;;4.79;100.00
48041;BME280;33815;48.386;11.738;2023-04-27T05:44:08;96692.72;;;4.92;100.00
48041;BME280;33815;48.386;11.738;2023-04-27T05:46:33;96680.00;;;4.89;100.00
48041;BME280;33815;48.386;11.738;2023-04-27T05:48:59;96699.59;;;5.16;100.00
48041;BME280;33815;48.386;11.738;2023-04-27T05:51:24;96709.13;;;5.27;100.00
48041;BME280;33815;48.386;11.738;2023-04-27T05:53:50;96706.94;;;5.45;100.00
48041;BME280;33815;48.386;11.738;2023-04-27T05:56:18;96716.00;;;5.62;100.00
48041;BME280;33815;48.386;11.738;2023-04-27T05:58:43;96718.47;;;5.63;100.00
48041;BME280;33815;48.386;11.738;2023-04-27T06:01:08;96711.09;;;5.81;100.00
48041;BME280;33815;48.386;11.738;2023-04-27T06:03:34;96714.97;;;5.87;100.00
48041;BME280;33815;48.386;11.738;2023-04-27T06:06:00;96717.09;;;5.93;100.00
48041;BME280;33815;48.386;11.738;2023-04-27T06:08:26;96699.09;;;6.03;100.00
48041;BME280;33815;48.386;11.738;2023-04-27T06:10:52;96722.28;;;6.27;100.00
48041;BME280;33815;48.386;11.738;2023-04-27T06:13:18;96708.38;;;6.28;100.00
48041;BME280;33815;48.386;11.738;2023-04-27T06:15:44;96716.34;;;6.59;100.00
48041;BME280;33815;48.386;11.738;2023-04-27T06:18:10;96702.75;;;6.67;100.00
48041;BME280;33815;48.386;11.738;2023-04-27T06:20:35;96710.91;;;6.95;100.00
48041;BME280;33815;48.386;11.738;2023-04-27T06:23:01;96712.84;;;7.02;99.74
48041;BME280;33815;48.386;11.738;2023-04-27T06:25:26;96708.78;;;7.00;100.00
48041;BME280;33815;48.386;11.738;2023-04-27T06:27:52;96707.66;;;7.02;100.00
48041;BME280;33815;48.386;11.738;2023-04-27T06:30:18;96707.88;;;7.11;100.00
48041;BME280;33815;48.386;11.738;2023-04-27T06:32:43;96719.91;;;7.33;100.00
48041;BME280;33815;48.386;11.738;2023-04-27T06:35:09;96718.94;;;7.76;98.23
48041;BME280;33815;48.386;11.738;2023-04-27T06:37:35;96704.16;;;7.77;95.98
48041;BME280;33815;48.386;11.738;2023-04-27T06:40:00;96716.59;;;7.73;95.66
48041;BME280;33815;48.386;11.738;2023-04-27T06:42:25;96718.44;;;7.92;96.77
48041;BME280;33815;48.386;11.738;2023-04-27T06:44:54;96710.47;;;8.15;97.38
48041;BME280;33815;48.386;11.738;2023-04-27T06:47:22;96716.00;;;8.41;96.71
48041;BME280;33815;48.386;11.738;2023-04-27T06:49:48;96716.34;;;8.57;90.14
48041;BME280;33815;48.386;11.738;2023-04-27T06:52:13;96721.41;;;8.59;92.20
48041;BME280;33815;48.386;11.738;2023-04-27T06:54:38;96723.22;;;8.68;90.65
48041;BME280;33815;48.386;11.738;2023-04-27T06:57:04;96726.59;;;8.59;91.07
48041;BME280;33815;48.386;11.738;2023-04-27T06:59:30;96723.75;;;8.82;88.67
48041;BME280;33815;48.386;11.738;2023-04-27T07:01:55;96727.31;;;9.10;87.21
48041;BME280;33815;48.386;11.738;2023-04-27T07:04:21;96728.56;;;9.16;85.11
48041;BME280;33815;48.386;11.738;2023-04-27T07:06:46;96727.47;;;9.08;85.34
48041;BME280;33815;48.386;11.738;2023-04-27T07:09:11;96731.84;;;9.28;85.36
48041;BME280;33815;48.386;11.738;2023-04-27T07:11:37;96719.94;;;9.25;84.08
48041;BME280;33815;48.386;11.738;2023-04-27T07:14:02;96727.16;;;9.51;85.61
48041;BME280;33815;48.386;11.738;2023-04-27T07:16:27;96723.13;;;9.66;84.57
48041;BME280;33815;48.386;11.738;2023-04-27T07:18:52;96724.66;;;9.69;77.50
48041;BME280;33815;48.386;11.738;2023-04-27T07:21:18;96727.44;;;9.95;76.78
48041;BME280;33815;48.386;11.738;2023-04-27T07:23:43;96721.59;;;9.83;76.27
48041;BME280;33815;48.386;11.738;2023-04-27T07:26:10;96713.22;;;9.89;79.13
48041;BME280;33815;48.386;11.738;2023-04-27T07:28:36;96715.75;;;10.09;78.39
48041;BME280;33815;48.386;11.738;2023-04-27T07:31:05;96705.66;;;10.24;76.67
48041;BME280;33815;48.386;11.738;2023-04-27T07:33:31;96723.56;;;10.47;76.40
48041;BME280;33815;48.386;11.738;2023-04-27T07:35:57;96707.16;;;10.54;69.44
48041;BME280;33815;48.386;11.738;2023-04-27T07:38:23;96704.84;;;10.97;66.88
48041;BME280;33815;48.386;11.738;2023-04-27T07:40:48;96715.69;;;10.92;66.91
48041;BME280;33815;48.386;11.738;2023-04-27T07:43:14;96722.03;;;11.08;67.29
48041;BME280;33815;48.386;11.738;2023-04-27T07:45:40;96717.09;;;11.23;66.95
48041;BME280;33815;48.386;11.738;2023-04-27T07:48:05;96721.75;;;11.11;65.56
48041;BME280;33815;48.386;11.738;2023-04-27T07:50:31;96723.78;;;11.43;63.99
48041;BME280;33815;48.386;11.738;2023-04-27T07:52:57;96728.72;;;11.10;63.18
48041;BME280;33815;48.386;11.738;2023-04-27T07:55:23;96728.25;;;11.33;64.39
48041;BME280;33815;48.386;11.738;2023-04-27T07:57:52;96725.88;;;11.40;66.73
48041;BME280;33815;48.386;11.738;2023-04-27T08:00:18;96717.66;;;11.35;67.43
48041;BME280;33815;48.386;11.738;2023-04-27T08:02:43;96721.56;;;12.01;66.37
48041;BME280;33815;48.386;11.738;2023-04-27T08:05:08;96711.03;;;11.93;65.09
48041;BME280;33815;48.386;11.738;2023-04-27T08:07:34;96714.53;;;12.02;64.57
48041;BME280;33815;48.386;11.738;2023-04-27T08:09:59;96723.66;;;11.97;66.68
48041;BME280;33815;48.386;11.738;2023-04-27T08:12:25;96720.28;;;12.05;65.03
48041;BME280;33815;48.386;11.738;2023-04-27T08:14:50;96720.91;;;12.42;62.78
48041;BME280;33815;48.386;11.738;2023-04-27T08:17:16;96712.97;;;12.17;61.64
48041;BME280;33815;48.386;11.738;2023-04-27T08:19:42;96729.97;;;12.21;63.25
48041;BME280;33815;48.386;11.738;2023-04-27T08:22:08;96723.31;;;12.27;63.15
48041;BME280;33815;48.386;11.738;2023-04-27T08:24:33;96720.00;;;12.16;63.02
48041;BME280;33815;48.386;11.738;2023-04-27T08:26:58;96707.63;;;12.27;59.93
48041;BME280;33815;48.386;11.738;2023-04-27T08:29:23;96711.22;;;12.85;58.09
48041;BME280;33815;48.386;11.738;2023-04-27T08:31:49;96709.91;;;12.89;56.54
48041;BME280;33815;48.386;11.738;2023-04-27T08:34:14;96698.44;;;12.65;53.12
48041;BME280;33815;48.386;11.738;2023-04-27T08:36:40;96710.06;;;12.71;55.15
48041;BME280;33815;48.386;11.738;2023-04-27T08:39:05;96700.09;;;12.91;53.38
48041;BME280;33815;48.386;11.738;2023-04-27T08:41:31;96710.56;;;12.99;53.70
48041;BME280;33815;48.386;11.738;2023-04-27T08:43:57;96695.06;;;13.06;50.18
48041;BME280;33815;48.386;11.738;2023-04-27T08:46:23;96696.34;;;12.85;54.26
48041;BME280;33815;48.386;11.738;2023-04-27T08:48:52;96710.50;;;12.66;54.90
48041;BME280;33815;48.386;11.738;2023-04-27T08:51:18;96713.38;;;13.14;53.77
48041;BME280;33815;48.386;11.738;2023-04-27T08:53:48;96710.09;;;13.12;52.35
48041;BME280;33815;48.386;11.738;2023-04-27T08:56:14;96698.81;;;13.45;49.25
48041;BME280;33815;48.386;11.738;2023-04-27T08:58:40;96703.38;;;13.67;50.38
48041;BME280;33815;48.386;11.738;2023-04-27T09:01:05;96686.88;;;13.42;49.54
48041;BME280;33815;48.386;11.738;2023-04-27T09:03:31;96701.59;;;13.43;50.97
48041;BME280;33815;48.386;11.738;2023-04-27T09:05:58;96714.19;;;13.56;53.92
48041;BME280;33815;48.386;11.738;2023-04-27T09:08:24;96695.56;;;13.59;50.67
48041;BME280;33815;48.386;11.738;2023-04-27T09:10:50;96694.50;;;13.85;50.48
48041;BME280;33815;48.386;11.738;2023-04-27T09:13:17;96699.94;;;13.59;51.68
48041;BME280;33815;48.386;11.738;2023-04-27T09:15:47;96691.75;;;14.18;49.69
48041;BME280;33815;48.386;11.738;2023-04-27T09:18:18;96683.25;;;14.16;48.72
48041;BME280;33815;48.386;11.738;2023-04-27T09:20:52;96676.41;;;14.07;49.73
48041;BME280;33815;48.386;11.738;2023-04-27T09:23:25;96692.59;;;14.18;48.97
48041;BME280;33815;48.386;11.738;2023-04-27T09:25:52;96692.25;;;13.74;51.91
48041;BME280;33815;48.386;11.738;2023-04-27T09:28:17;96690.97;;;14.49;51.70
48041;BME280;33815;48.386;11.738;2023-04-27T09:30:50;96672.97;;;14.77;51.73
48041;BME280;33815;48.386;11.738;2023-04-27T09:33:21;96674.78;;;15.00;48.02
48041;BME280;33815;48.386;11.738;2023-04-27T09:35:47;96662.03;;;14.97;47.87
48041;BME280;33815;48.386;11.738;2023-04-27T09:38:13;96664.84;;;15.10;45.37
48041;BME280;33815;48.386;11.738;2023-04-27T09:40:39;96648.31;;;14.86;45.83
48041;BME280;33815;48.386;11.738;2023-04-27T09:43:05;96660.91;;;14.91;47.62
48041;BME280;33815;48.386;11.738;2023-04-27T09:45:32;96657.38;;;14.76;47.40
48041;BME280;33815;48.386;11.738;2023-04-27T09:47:57;96659.91;;;14.92;47.30
48041;BME280;33815;48.386;11.738;2023-04-27T09:50:22;96673.69;;;14.94;48.28
48041;BME280;33815;48.386;11.738;2023-04-27T09:52:48;96659.31;;;15.05;50.67
48041;BME280;33815;48.386;11.738;2023-04-27T09:55:24;96646.56;;;15.55;45.30
48041;BME280;33815;48.386;11.738;2023-04-27T10:08:34;96642.09;;;15.40;45.48
48041;BME280;33815;48.386;11.738;2023-04-27T10:10:59;96630.16;;;15.68;44.88
48041;BME280;33815;48.386;11.738;2023-04-27T10:13:25;96631.00;;;15.83;45.22
48041;BME280;33815;48.386;11.738;2023-04-27T10:15:51;96628.09;;;15.63;46.31
48041;BME280;33815;48.386;11.738;2023-04-27T10:18:28;96637.16;;;15.75;45.76
48041;BME280;33815;48.386;11.738;2023-04-27T10:20:54;96612.41;;;16.15;42.40
48041;BME280;33815;48.386;11.738;2023-04-27T10:23:24;96626.44;;;16.22;43.69
48041;BME280;33815;48.386;11.738;2023-04-27T10:25:50;96609.78;;;16.00;40.05
48041;BME280;33815;48.386;11.738;2023-04-27T10:28:16;96622.28;;;15.68;43.61
48041;BME280;33815;48.386;11.738;2023-04-27T10:30:46;96627.38;;;15.84;48.85
48041;BME280;33815;48.386;11.738;2023-04-27T10:33:15;96628.03;;;16.38;47.29
48041;BME280;33815;48.386;11.738;2023-04-27T10:35:43;96627.50;;;16.64;47.20
48041;BME280;33815;48.386;11.738;2023-04-27T10:38:17;96624.53;;;16.52;43.94
48041;BME280;33815;48.386;11.738;2023-04-27T10:40:44;96623.34;;;16.18;44.40
48041;BME280;33815;48.386;11.738;2023-04-27T10:43:15;96608.16;;;15.99;42.45
48041;BME280;33815;48.386;11.738;2023-04-27T10:45:42;96623.63;;;15.64;45.86
48041;BME280;33815;48.386;11.738;2023-04-27T10:48:08;96629.06;;;15.32;43.55
48041;BME280;33815;48.386;11.738;2023-04-27T10:50:36;96613.00;;;15.12;43.27
48041;BME280;33815;48.386;11.738;2023-04-27T10:53:04;96625.13;;;15.13;43.02
48041;BME280;33815;48.386;11.738;2023-04-27T10:55:31;96616.28;;;15.44;43.41
48041;BME280;33815;48.386;11.738;2023-04-27T10:57:57;96617.47;;;15.41;46.88
48041;BME280;33815;48.386;11.738;2023-04-27T11:02:55;96637.84;;;15.39;47.82
48041;BME280;33815;48.386;11.738;2023-04-27T11:05:23;96624.38;;;15.57;46.60
48041;BME280;33815;48.386;11.738;2023-04-27T11:07:50;96608.25;;;15.75;42.97
48041;BME280;33815;48.386;11.738;2023-04-27T11:10:19;96610.06;;;15.60;43.47
48041;BME280;33815;48.386;11.738;2023-04-27T11:12:45;96615.66;;;15.42;44.30
48041;BME280;33815;48.386;11.738;2023-04-27T11:15:11;96617.53;;;14.80;43.47
48041;BME280;33815;48.386;11.738;2023-04-27T11:17:36;96629.84;;;14.48;46.62
48041;BME280;33815;48.386;11.738;2023-04-27T11:20:03;96623.56;;;14.26;46.35
48041;BME280;33815;48.386;11.738;2023-04-27T11:22:44;96626.16;;;14.03;48.27
48041;BME280;33815;48.386;11.738;2023-04-27T11:25:10;96629.56;;;14.35;45.43
48041;BME280;33815;48.386;11.738;2023-04-27T11:27:37;96620.94;;;15.04;45.79
48041;BME280;33815;48.386;11.738;2023-04-27T11:30:03;96623.03;;;16.06;45.46
48041;BME280;33815;48.386;11.738;2023-04-27T11:32:28;96612.31;;;16.44;42.15
48041;BME280;33815;48.386;11.738;2023-04-27T11:34:54;96621.41;;;17.07;45.58
48041;BME280;33815;48.386;11.738;2023-04-27T11:37:26;96615.44;;;17.48;44.07
48041;BME280;33815;48.386;11.738;2023-04-27T11:39:53;96610.28;;;18.03;41.83
48041;BME280;33815;48.386;11.738;2023-04-27T11:42:20;96593.88;;;18.14;40.96
48041;BME280;33815;48.386;11.738;2023-04-27T11:45:00;96605.88;;;18.92;40.32
48041;BME280;33815;48.386;11.738;2023-04-27T11:47:27;96598.34;;;19.03;38.69
48041;BME280;33815;48.386;11.738;2023-04-27T11:49:58;96593.81;;;18.63;39.83
48041;BME280;33815;48.386;11.738;2023-04-27T11:52:31;96592.84;;;18.97;38.12
48041;BME280;33815;48.386;11.738;2023-04-27T11:54:58;96588.97;;;18.93;38.08
48041;BME280;33815;48.386;11.738;2023-04-27T11:57:25;96595.09;;;19.07;38.63
48041;BME280;33815;48.386;11.738;2023-04-27T11:59:57;96601.38;;;19.13;36.27
48041;BME280;33815;48.386;11.738;2023-04-27T12:02:27;96596.72;;;19.02;37.27
48041;BME280;33815;48.386;11.738;2023-04-27T12:04:53;96597.09;;;18.78;36.24
48041;BME280;33815;48.386;11.738;2023-04-27T12:07:19;96592.38;;;18.60;37.28
48041;BME280;33815;48.386;11.738;2023-04-27T12:09:45;96585.28;;;18.47;37.49
48041;BME280;33815;48.386;11.738;2023-04-27T12:12:11;96602.22;;;18.18;37.66
48041;BME280;33815;48.386;11.738;2023-04-27T12:14:43;96598.84;;;17.54;38.10
48041;BME280;33815;48.386;11.738;2023-04-27T12:17:08;96597.41;;;18.35;40.11
48041;BME280;33815;48.386;11.738;2023-04-27T12:19:33;96600.59;;;18.92;41.46
48041;BME280;33815;48.386;11.738;2023-04-27T12:22:00;96587.50;;;19.58;39.15
48041;BME280;33815;48.386;11.738;2023-04-27T12:24:26;96585.06;;;19.63;38.65
48041;BME280;33815;48.386;11.738;2023-04-27T12:26:51;96586.41;;;19.79;38.36
48041;BME280;33815;48.386;11.738;2023-04-27T12:29:16;96588.19;;;18.99;35.37
48041;BME280;33815;48.386;11.738;2023-04-27T12:31:42;96583.53;;;18.88;37.13
48041;BME280;33815;48.386;11.738;2023-04-27T12:34:07;96572.44;;;18.44;36.13
48041;BME280;33815;48.386;11.738;2023-04-27T12:36:32;96590.97;;;18.58;38.02
48041;BME280;33815;48.386;11.738;2023-04-27T12:39:10;96587.53;;;19.44;37.83
48041;BME280;33815;48.386;11.738;2023-04-27T12:41:35;96588.47;;;19.70;36.91
48041;BME280;33815;48.386;11.738;2023-04-27T12:44:01;96592.84;;;19.24;36.00
48041;BME280;33815;48.386;11.738;2023-04-27T12:46:26;96586.56;;;19.12;36.30
48041;BME280;33815;48.386;11.738;2023-04-27T12:48:51;96581.03;;;17.98;36.71
48041;BME280;33815;48.386;11.738;2023-04-27T12:51:17;96607.63;;;17.96;42.31
48041;BME280;33815;48.386;11.738;2023-04-27T12:53:42;96588.81;;;18.13;35.50
48041;BME280;33815;48.386;11.738;2023-04-27T12:56:07;96595.28;;;18.10;41.83
48041;BME280;33815;48.386;11.738;2023-04-27T12:58:33;96583.22;;;18.36;36.32